createdAt,value
2017-06-14T00:01:49.445Z,1005.63
2017-06-14T00:03:56.663Z,1005.56
2017-06-14T00:05:49.591Z,1005.63
2017-06-14T00:08:05.278Z,1005.65
2017-06-14T00:10:29.362Z,1005.56
2017-06-14T00:12:53.432Z,1005.52
2017-06-14T00:15:17.515Z,1005.49
2017-06-14T00:17:41.598Z,1005.51
2017-06-14T00:20:05.679Z,1005.5
2017-06-14T00:22:07.060Z,1005.46
2017-06-14T00:24:22.721Z,1005.41
2017-06-14T00:26:38.300Z,1005.44
2017-06-14T00:29:02.370Z,1005.46
2017-06-14T00:31:26.456Z,1005.48
2017-06-14T00:33:50.548Z,1005.45
2017-06-14T00:36:14.626Z,1005.51
2017-06-14T00:38:30.308Z,1005.51
2017-06-14T00:40:54.290Z,1005.53
2017-06-14T00:43:18.372Z,1005.46
2017-06-14T00:45:33.986Z,1005.39
2017-06-14T00:47:58.030Z,1005.39
2017-06-14T00:50:22.111Z,1005.35
2017-06-14T00:52:46.088Z,1005.29
2017-06-14T00:55:10.168Z,1005.35
2017-06-14T00:57:34.262Z,1005.4
2017-06-14T00:59:58.338Z,1005.43
2017-06-14T01:02:13.927Z,1005.36
2017-06-14T01:04:29.502Z,1005.33
2017-06-14T01:06:30.860Z,1005.33
2017-06-14T01:08:54.922Z,1005.33
2017-06-14T01:11:10.502Z,1005.31
2017-06-14T01:13:34.491Z,1005.29
2017-06-14T01:15:58.459Z,1005.24
2017-06-14T01:18:22.448Z,1005.28
2017-06-14T01:20:46.432Z,1005.29
2017-06-14T01:23:02.010Z,1005.29
2017-06-14T01:25:25.983Z,1005.31
2017-06-14T01:27:49.965Z,1005.36
2017-06-14T01:30:13.941Z,1005.39
2017-06-14T01:32:29.525Z,1005.4
2017-06-14T01:34:53.507Z,1005.48
2017-06-14T01:37:17.484Z,1005.47
2017-06-14T01:39:33.063Z,1005.53
2017-06-14T01:41:57.045Z,1005.63
2017-06-14T01:43:58.904Z,1005.55
2017-06-14T01:46:22.900Z,1005.59
2017-06-14T01:48:46.859Z,1005.59
2017-06-14T01:51:02.418Z,1005.61
2017-06-14T01:53:26.426Z,1005.63
2017-06-14T01:55:41.981Z,1005.69
2017-06-14T01:58:05.892Z,1005.66
2017-06-14T02:00:29.867Z,1005.59
2017-06-14T02:02:45.442Z,1005.58
2017-06-14T02:05:09.435Z,1005.56
2017-06-14T02:07:33.404Z,1005.54
2017-06-14T02:09:34.758Z,1005.59
2017-06-14T02:11:41.907Z,1005.56
2017-06-14T02:14:05.917Z,1005.53
2017-06-14T02:16:21.482Z,1005.54
2017-06-14T02:18:36.957Z,1005.56
2017-06-14T02:21:00.959Z,1005.54
2017-06-14T02:23:24.834Z,1005.55
2017-06-14T02:25:48.807Z,1005.61
2017-06-14T02:28:12.789Z,1005.63
2017-06-14T02:30:36.774Z,1005.66
2017-06-14T02:32:52.333Z,1005.69
2017-06-14T02:35:16.232Z,1005.78
2017-06-14T02:37:40.210Z,1005.78
2017-06-14T02:40:04.187Z,1005.74
2017-06-14T02:42:28.175Z,1005.75
2017-06-14T02:44:30.011Z,1005.71
2017-06-14T02:46:54.014Z,1005.61
2017-06-14T02:49:17.984Z,1005.56
2017-06-14T02:51:41.966Z,1005.56
2017-06-14T02:54:05.936Z,1005.54
2017-06-14T02:56:29.924Z,1005.58
2017-06-14T02:58:53.809Z,1005.58
2017-06-14T03:01:17.678Z,1005.51
2017-06-14T03:03:41.555Z,1005.48
2017-06-14T03:05:42.876Z,1005.49
2017-06-14T03:08:06.784Z,1005.51
2017-06-14T03:10:30.656Z,1005.56
2017-06-14T03:12:54.531Z,1005.61
2017-06-14T03:15:18.405Z,1005.54
2017-06-14T03:17:42.283Z,1005.48
2017-06-14T03:20:06.187Z,1005.47
2017-06-14T03:22:21.642Z,1005.53
2017-06-14T03:24:37.122Z,1005.5
2017-06-14T03:27:00.990Z,1005.45
2017-06-14T03:29:24.877Z,1005.43
2017-06-14T03:31:40.330Z,1005.43
2017-06-14T03:33:55.833Z,1005.42
2017-06-14T03:36:19.721Z,1005.46
2017-06-14T03:38:35.166Z,1005.49
2017-06-14T03:40:50.678Z,1005.47
2017-06-14T03:43:14.552Z,1005.47
2017-06-14T03:45:30.031Z,1005.45
2017-06-14T03:47:53.904Z,1005.51
2017-06-14T03:50:09.392Z,1005.54
2017-06-14T03:52:24.877Z,1005.53
2017-06-14T03:54:26.225Z,1005.58
2017-06-14T03:56:50.219Z,1005.63
2017-06-14T03:59:14.188Z,1005.72
2017-06-14T04:01:38.171Z,1005.72
2017-06-14T04:04:02.156Z,1005.8
2017-06-14T04:06:26.134Z,1005.82
2017-06-14T04:08:50.118Z,1005.84
2017-06-14T04:11:14.102Z,1005.86
2017-06-14T04:13:38.194Z,1005.86
2017-06-14T04:15:53.765Z,1005.85
2017-06-14T04:18:17.848Z,1005.87
2017-06-14T04:20:41.922Z,1005.93
2017-06-14T04:22:52.313Z,1005.97
2017-06-14T04:25:16.500Z,1006.01
2017-06-14T04:27:32.302Z,1005.95
2017-06-14T04:29:56.608Z,1005.97
2017-06-14T04:32:21.018Z,1006.01
2017-06-14T04:34:45.527Z,1005.97
2017-06-14T04:37:10.138Z,1006.01
2017-06-14T04:39:34.850Z,1006
2017-06-14T04:41:51.181Z,1005.92
2017-06-14T04:43:59.087Z,1005.9
2017-06-14T04:46:23.984Z,1005.95
2017-06-14T04:48:40.496Z,1005.94
2017-06-14T04:51:05.514Z,1005.85
2017-06-14T04:53:22.117Z,1005.86
2017-06-14T04:55:38.736Z,1005.84
2017-06-14T04:57:55.347Z,1005.88
2017-06-14T05:00:11.948Z,1005.89
2017-06-14T05:02:28.541Z,1005.88
2017-06-14T05:04:53.655Z,1005.93
2017-06-14T05:07:18.752Z,1005.93
2017-06-14T05:09:43.866Z,1005.98
2017-06-14T05:12:08.981Z,1006.11
2017-06-14T05:14:34.197Z,1006.07
2017-06-14T05:16:50.909Z,1006.16
2017-06-14T05:19:16.131Z,1006.14
2017-06-14T05:21:32.829Z,1006.18
2017-06-14T05:25:33.974Z,1006.26
2017-06-14T05:27:59.339Z,1006.18
2017-06-14T05:30:24.762Z,1006.18
2017-06-14T05:32:41.685Z,1006.22
2017-06-14T05:35:07.209Z,1006.26
2017-06-14T05:37:32.833Z,1006.28
2017-06-14T05:39:50.037Z,1006.24
2017-06-14T05:42:15.806Z,1006.21
2017-06-14T05:44:41.641Z,1006.27
2017-06-14T05:47:07.583Z,1006.36
2017-06-14T05:49:25.006Z,1006.36
2017-06-14T05:51:51.068Z,1006.44
2017-06-14T05:54:17.101Z,1006.32
2017-06-14T05:56:43.115Z,1006.35
2017-06-14T05:59:09.218Z,1006.35
2017-06-14T06:01:35.268Z,1006.32
2017-06-14T06:04:01.414Z,1006.25
2017-06-14T06:06:27.538Z,1006.28
2017-06-14T06:08:53.666Z,1006.28
2017-06-14T06:11:19.800Z,1006.26
2017-06-14T06:13:45.923Z,1006.25
2017-06-14T06:16:11.936Z,1006.17
2017-06-14T06:18:37.838Z,1006.1
2017-06-14T06:21:03.778Z,1006.1
2017-06-14T06:23:29.673Z,1006.06
2017-06-14T06:25:40.174Z,1006.13
2017-06-14T06:27:50.640Z,1006.15
2017-06-14T06:30:16.418Z,1006.25
2017-06-14T06:32:33.691Z,1006.15
2017-06-14T06:34:59.468Z,1006.23
2017-06-14T06:37:25.295Z,1006.23
2017-06-14T06:39:42.633Z,1006.18
2017-06-14T06:42:08.556Z,1006.18
2017-06-14T06:44:34.478Z,1006.25
2017-06-14T06:47:00.395Z,1006.22
2017-06-14T06:49:17.713Z,1006.11
2017-06-14T06:51:35.023Z,1006.17
2017-06-14T06:53:43.708Z,1006.07
2017-06-14T06:56:00.857Z,1006.16
2017-06-14T06:58:26.579Z,1006.17
2017-06-14T07:00:43.690Z,1006.1
2017-06-14T07:03:09.408Z,1006.06
2017-06-14T07:05:35.119Z,1006.09
2017-06-14T07:07:52.208Z,1006.11
2017-06-14T07:10:09.328Z,1006.13
2017-06-14T07:12:35.878Z,1006.07
2017-06-14T07:15:01.385Z,1006.07
2017-06-14T07:17:26.804Z,1006.04
2017-06-14T07:19:52.317Z,1006.04
2017-06-14T07:22:17.723Z,1006.05
2017-06-14T07:24:26.140Z,1005.8
2017-06-14T07:26:51.560Z,1006.01
2017-06-14T07:29:16.960Z,1006.1
2017-06-14T07:31:33.865Z,1006.05
2017-06-14T07:33:59.401Z,1006.03
2017-06-14T07:36:24.923Z,1006.07
2017-06-14T07:38:50.415Z,1006.04
2017-06-14T07:41:15.938Z,1006.05
2017-06-14T07:43:42.519Z,1006.08
2017-06-14T07:46:08.117Z,1006.12
2017-06-14T07:48:33.652Z,1006.07
2017-06-14T07:50:59.157Z,1006.07
2017-06-14T07:53:24.658Z,1006.01
2017-06-14T07:55:50.318Z,1006.03
2017-06-14T07:57:52.545Z,1006.03
2017-06-14T08:00:18.301Z,1006.05
2017-06-14T08:02:20.634Z,1005.99
2017-06-14T08:06:48.725Z,1006.04
2017-06-14T08:09:14.507Z,1006.04
2017-06-14T08:11:40.201Z,1006.07
2017-06-14T08:13:42.524Z,1006.04
2017-06-14T08:16:00.795Z,1005.99
2017-06-14T08:18:26.530Z,1005.96
2017-06-14T08:20:52.273Z,1006.01
2017-06-14T08:23:19.047Z,1005.92
2017-06-14T08:25:44.742Z,1005.96
2017-06-14T08:28:11.495Z,1005.83
2017-06-14T08:30:38.226Z,1005.86
2017-06-14T08:33:06.023Z,1005.77
2017-06-14T08:35:31.727Z,1005.8
2017-06-14T08:37:57.355Z,1005.74
2017-06-14T08:40:23.150Z,1005.65
2017-06-14T08:42:49.896Z,1005.66
2017-06-14T08:45:15.623Z,1005.79
2017-06-14T08:47:41.339Z,1005.74
2017-06-14T08:50:07.058Z,1005.67
2017-06-14T08:52:32.764Z,1005.73
2017-06-14T08:54:58.501Z,1005.77
2017-06-14T08:57:15.679Z,1005.73
2017-06-14T08:59:32.935Z,1005.73
2017-06-14T09:01:58.669Z,1005.73
2017-06-14T09:04:24.389Z,1005.72
2017-06-14T09:06:41.573Z,1005.73
2017-06-14T09:09:07.327Z,1005.73
2017-06-14T09:11:33.044Z,1005.72
2017-06-14T09:13:58.769Z,1005.7
2017-06-14T09:16:24.478Z,1005.7
2017-06-14T09:18:50.189Z,1005.71
2017-06-14T09:21:15.813Z,1005.63
2017-06-14T09:23:32.888Z,1005.56
2017-06-14T09:25:58.434Z,1005.53
2017-06-14T09:28:24.059Z,1005.5
2017-06-14T09:30:49.661Z,1005.5
2017-06-14T09:33:15.172Z,1005.52
2017-06-14T09:35:40.689Z,1005.46
2017-06-14T09:38:06.199Z,1005.41
2017-06-14T09:40:23.211Z,1005.37
2017-06-14T09:42:48.726Z,1005.35
2017-06-14T09:45:05.723Z,1005.27
2017-06-14T09:47:22.603Z,1005.28
2017-06-14T09:49:48.058Z,1005.25
2017-06-14T09:52:04.989Z,1005.18
2017-06-14T09:54:30.490Z,1005.22
2017-06-14T09:56:47.409Z,1005.2
2017-06-14T09:58:49.133Z,1005.21
2017-06-14T10:01:14.577Z,1005.2
2017-06-14T10:03:40.091Z,1005.21
2017-06-14T10:06:05.607Z,1005.19
2017-06-14T10:08:31.017Z,1005.22
2017-06-14T10:10:56.429Z,1005.19
2017-06-14T10:13:21.727Z,1005.08
2017-06-14T10:15:38.538Z,1005.17
2017-06-14T10:17:49.325Z,1005.19
2017-06-14T10:20:14.728Z,1005.17
2017-06-14T10:22:40.017Z,1005.22
2017-06-14T10:24:56.713Z,1005.25
2017-06-14T10:27:13.446Z,1005.16
2017-06-14T10:29:30.080Z,1005.19
2017-06-14T10:31:55.235Z,1005.1
2017-06-14T10:34:20.439Z,1005.07
2017-06-14T10:36:45.653Z,1005
2017-06-14T10:39:10.772Z,1005
2017-06-14T10:41:18.964Z,1005.09
2017-06-14T10:43:44.162Z,1004.96
2017-06-14T10:46:09.272Z,1004.95
2017-06-14T10:48:34.369Z,1004.93
2017-06-14T10:50:59.415Z,1005.01
2017-06-14T10:53:24.467Z,1004.97
2017-06-14T10:57:25.880Z,1004.91
2017-06-14T10:59:33.946Z,1004.88
2017-06-14T11:01:58.941Z,1004.81
2017-06-14T11:04:23.952Z,1004.71
2017-06-14T11:06:48.959Z,1004.83
2017-06-14T11:09:13.951Z,1004.66
2017-06-14T11:11:38.959Z,1004.78
2017-06-14T11:14:03.955Z,1004.64
2017-06-14T11:16:28.863Z,1004.58
2017-06-14T11:18:53.865Z,1004.59
2017-06-14T11:21:18.867Z,1004.55
2017-06-14T11:23:43.878Z,1004.57
2017-06-14T11:26:00.279Z,1004.52
2017-06-14T11:28:16.775Z,1004.43
2017-06-14T11:30:41.671Z,1004.37
2017-06-14T11:33:06.570Z,1004.35
2017-06-14T11:35:31.484Z,1004.38
2017-06-14T11:37:56.476Z,1004.36
2017-06-14T11:40:21.387Z,1004.32
2017-06-14T11:42:46.282Z,1004.39
2017-06-14T11:44:47.859Z,1004.36
2017-06-14T11:47:12.843Z,1004.37
2017-06-14T11:49:37.836Z,1004.24
2017-06-14T11:51:54.337Z,1004.21
2017-06-14T11:54:19.246Z,1004.24
2017-06-14T11:56:44.152Z,1004.22
2017-06-14T11:59:09.048Z,1004.18
2017-06-14T12:01:33.945Z,1004.11
2017-06-14T12:03:50.364Z,1004.15
2017-06-14T12:06:15.348Z,1004.18
2017-06-14T12:08:40.245Z,1004.13
2017-06-14T12:11:05.154Z,1004.1
2017-06-14T12:13:30.051Z,1004.04
2017-06-14T12:15:54.950Z,1004.05
2017-06-14T12:18:11.377Z,1004.02
2017-06-14T12:20:36.258Z,1004.11
2017-06-14T12:22:38.372Z,1004.11
2017-06-14T12:25:03.341Z,1004.1
2017-06-14T12:27:28.339Z,1004.09
2017-06-14T12:29:53.344Z,1004.06
2017-06-14T12:32:18.237Z,1004.09
2017-06-14T12:34:43.144Z,1004
2017-06-14T12:37:08.033Z,1003.98
2017-06-14T12:39:15.963Z,1003.96
2017-06-14T12:41:32.345Z,1003.92
2017-06-14T12:43:48.754Z,1003.91
2017-06-14T12:46:13.640Z,1003.91
2017-06-14T12:48:31.083Z,1003.89
2017-06-14T12:50:55.974Z,1003.91
2017-06-14T12:53:20.873Z,1003.9
2017-06-14T12:55:45.885Z,1003.75
2017-06-14T12:58:10.882Z,1003.79
2017-06-14T13:00:35.802Z,1003.79
2017-06-14T13:03:00.716Z,1003.75
2017-06-14T13:05:08.665Z,1003.81
2017-06-14T13:07:33.576Z,1003.8
2017-06-14T13:09:58.456Z,1003.85
2017-06-14T13:12:23.336Z,1003.83
2017-06-14T13:14:34.007Z,1003.75
2017-06-14T13:16:50.433Z,1003.8
2017-06-14T13:19:15.335Z,1003.79
2017-06-14T13:21:31.745Z,1003.67
2017-06-14T13:23:56.576Z,1003.68
2017-06-14T13:26:21.402Z,1003.65
2017-06-14T13:28:46.276Z,1003.53
2017-06-14T13:31:11.123Z,1003.64
2017-06-14T13:33:35.985Z,1003.61
2017-06-14T13:36:00.825Z,1003.65
2017-06-14T13:38:25.691Z,1003.53
2017-06-14T13:40:42.022Z,1003.45
2017-06-14T13:43:06.872Z,1003.43
2017-06-14T13:45:31.718Z,1003.5
2017-06-14T13:47:56.558Z,1003.43
2017-06-14T13:50:21.388Z,1003.39
2017-06-14T13:52:46.244Z,1003.38
2017-06-14T13:55:11.108Z,1003.34
2017-06-14T13:57:35.957Z,1003.34
2017-06-14T14:00:00.786Z,1003.32
2017-06-14T14:02:25.660Z,1003.27
2017-06-14T14:04:50.469Z,1003.26
2017-06-14T14:07:16.175Z,1003.2
2017-06-14T14:09:41.032Z,1003.09
2017-06-14T14:11:57.401Z,1003.16
2017-06-14T14:14:22.272Z,1003.07
2017-06-14T14:16:47.105Z,1003.06
2017-06-14T14:19:11.947Z,1003.09
2017-06-14T14:21:28.380Z,1003.03
2017-06-14T14:23:44.734Z,1003.04
2017-06-14T14:25:46.819Z,1002.99
2017-06-14T14:28:11.669Z,1003.06
2017-06-14T14:30:36.550Z,1002.97
2017-06-14T14:32:52.931Z,1002.96
2017-06-14T14:35:17.792Z,1002.95
2017-06-14T14:37:28.446Z,1002.91
2017-06-14T14:39:53.339Z,1002.85
2017-06-14T14:42:18.202Z,1002.86
2017-06-14T14:44:43.026Z,1002.86
2017-06-14T14:47:07.835Z,1002.83
2017-06-14T14:49:32.720Z,1002.84
2017-06-14T14:51:49.129Z,1002.86
2017-06-14T14:54:13.973Z,1002.81
2017-06-14T14:56:38.883Z,1002.77
2017-06-14T14:59:03.735Z,1002.67
2017-06-14T15:01:28.593Z,1002.62
2017-06-14T15:03:53.470Z,1002.59
2017-06-14T15:06:18.346Z,1002.58
2017-06-14T15:08:43.178Z,1002.55
2017-06-14T15:11:08.037Z,1002.51
2017-06-14T15:13:32.918Z,1002.48
2017-06-14T15:15:57.832Z,1002.47
2017-06-14T15:18:22.705Z,1002.43
2017-06-14T15:20:39.105Z,1002.43
2017-06-14T15:23:03.981Z,1002.38
2017-06-14T15:25:28.857Z,1002.29
2017-06-14T15:27:53.705Z,1002.31
2017-06-14T15:30:10.114Z,1002.29
2017-06-14T15:32:34.961Z,1002.29
2017-06-14T15:34:59.874Z,1002.24
2017-06-14T15:37:24.717Z,1002.26
2017-06-14T15:39:49.578Z,1002.25
2017-06-14T15:42:14.435Z,1002.25
2017-06-14T15:44:39.329Z,1002.16
2017-06-14T15:47:04.234Z,1002.19
2017-06-14T15:49:29.130Z,1002.19
2017-06-14T15:51:54.027Z,1002.18
2017-06-14T15:54:18.957Z,1002.19
2017-06-14T15:56:43.824Z,1002.17
2017-06-14T15:59:08.749Z,1002.14
2017-06-14T16:01:33.665Z,1002.09
2017-06-14T16:03:35.750Z,1002.12
2017-06-14T16:06:00.715Z,1002.12
2017-06-14T16:08:25.626Z,1002.05
2017-06-14T16:10:42.646Z,1002.07
2017-06-14T16:13:07.545Z,1002
2017-06-14T16:15:00.732Z,1002
2017-06-14T16:17:25.690Z,1001.99
2017-06-14T16:19:50.576Z,1002.05
2017-06-14T16:22:15.495Z,1001.97
2017-06-14T16:24:40.838Z,1001.93
2017-06-14T16:29:15.275Z,1001.86
2017-06-14T16:31:41.410Z,1001.85
2017-06-14T16:34:06.345Z,1001.8
2017-06-14T16:36:32.125Z,1001.8
2017-06-14T16:38:56.895Z,1001.73
2017-06-14T16:41:21.814Z,1001.71
2017-06-14T16:43:46.595Z,1001.69
2017-06-14T16:46:11.391Z,1001.68
2017-06-14T16:48:36.298Z,1001.68
2017-06-14T16:51:01.199Z,1001.65
2017-06-14T16:53:26.097Z,1001.67
2017-06-14T16:55:42.428Z,1001.73
2017-06-14T16:57:41.781Z,1001.7
2017-06-14T17:00:06.723Z,1001.72
2017-06-14T17:02:23.122Z,1001.72
2017-06-14T17:04:47.994Z,1001.64
2017-06-14T17:07:12.801Z,1001.64
2017-06-14T17:09:37.613Z,1001.64
2017-06-14T17:12:02.416Z,1001.63
2017-06-14T17:13:54.092Z,1001.64
2017-06-14T17:16:21.849Z,1001.66
2017-06-14T17:18:46.771Z,1001.71
2017-06-14T17:21:11.603Z,1001.82
2017-06-14T17:23:37.546Z,1001.83
2017-06-14T17:26:02.319Z,1001.86
2017-06-14T17:28:27.397Z,1001.82
2017-06-14T17:30:43.726Z,1001.83
2017-06-14T17:33:08.781Z,1001.78
2017-06-14T17:35:33.612Z,1001.74
2017-06-14T17:37:58.501Z,1001.91
2017-06-14T17:40:23.256Z,1001.83
2017-06-14T17:42:48.044Z,1001.88
2017-06-14T17:45:12.854Z,1001.82
2017-06-14T17:47:38.650Z,1001.81
2017-06-14T17:50:03.443Z,1001.78
2017-06-14T17:52:28.254Z,1001.76
2017-06-14T17:54:53.039Z,1001.75
2017-06-14T17:57:18.833Z,1001.81
2017-06-14T17:59:43.654Z,1001.76
2017-06-14T18:02:09.535Z,1001.72
2017-06-14T18:04:34.301Z,1001.73
2017-06-14T18:07:00.016Z,1001.7
2017-06-14T18:09:26.746Z,1001.71
2017-06-14T18:11:51.615Z,1001.78
2017-06-14T18:14:17.487Z,1001.73
2017-06-14T18:16:44.270Z,1001.75
2017-06-14T18:19:09.918Z,1001.68
2017-06-14T18:21:34.622Z,1001.71
2017-06-14T18:23:59.428Z,1001.76
2017-06-14T18:26:31.001Z,1001.77
2017-06-14T18:30:38.298Z,1001.77
2017-06-14T18:33:03.988Z,1001.72
2017-06-14T18:35:29.719Z,1001.71
2017-06-14T18:37:54.407Z,1001.73
2017-06-14T18:40:05.008Z,1001.73
2017-06-14T18:42:29.666Z,1001.68
2017-06-14T18:44:54.383Z,1001.7
2017-06-14T18:47:19.077Z,1001.74
2017-06-14T18:49:45.706Z,1001.77
2017-06-14T18:52:10.405Z,1001.72
2017-06-14T18:54:34.975Z,1001.74
2017-06-14T18:56:59.694Z,1001.71
2017-06-14T18:59:24.393Z,1001.78
2017-06-14T19:01:49.121Z,1001.75
2017-06-14T19:04:13.678Z,1001.78
2017-06-14T19:06:29.822Z,1001.78
2017-06-14T19:08:45.957Z,1001.8
2017-06-14T19:11:02.163Z,1001.79
2017-06-14T19:13:26.749Z,1001.81
2017-06-14T19:15:51.364Z,1001.83
2017-06-14T19:18:16.040Z,1001.88
2017-06-14T19:20:40.643Z,1001.9
2017-06-14T19:23:05.230Z,1001.91
2017-06-14T19:25:29.921Z,1001.92
2017-06-14T19:27:54.644Z,1001.94
2017-06-14T19:30:19.321Z,1001.93
2017-06-14T19:32:29.387Z,1001.96
2017-06-14T19:34:54.016Z,1002
2017-06-14T19:37:18.586Z,1002.05
2017-06-14T19:39:11.616Z,1002.06
2017-06-14T19:41:27.849Z,1002.07
2017-06-14T19:43:52.502Z,1002.04
2017-06-14T19:46:17.093Z,1002.08
2017-06-14T19:48:41.687Z,1002.07
2017-06-14T19:50:49.407Z,1002.07
2017-06-14T19:52:57.006Z,1002.11
2017-06-14T19:54:59.282Z,1002.13
2017-06-14T19:57:23.853Z,1002.12
2017-06-14T19:59:48.438Z,1002.19
2017-06-14T20:02:13.036Z,1002.22
2017-06-14T20:04:15.036Z,1002.25
2017-06-14T20:06:39.578Z,1002.26
2017-06-14T20:09:04.181Z,1002.29
2017-06-14T20:11:20.255Z,1002.31
2017-06-14T20:13:36.321Z,1002.33
2017-06-14T20:16:00.856Z,1002.32
2017-06-14T20:18:25.344Z,1002.28
2017-06-14T20:20:49.853Z,1002.26
2017-06-14T20:23:14.435Z,1002.3
2017-06-14T20:25:39.028Z,1002.33
2017-06-14T20:27:55.118Z,1002.37
2017-06-14T20:30:19.703Z,1002.38
2017-06-14T20:32:44.311Z,1002.39
2017-06-14T20:35:08.815Z,1002.37
2017-06-14T20:37:33.300Z,1002.36
2017-06-14T20:39:57.781Z,1002.4
2017-06-14T20:42:13.873Z,1002.42
2017-06-14T20:44:29.915Z,1002.43
2017-06-14T20:46:54.458Z,1002.45
2017-06-14T20:50:56.115Z,1002.42
2017-06-14T20:53:20.536Z,1002.41
2017-06-14T20:55:22.471Z,1002.4
2017-06-14T20:57:46.991Z,1002.42
2017-06-14T21:00:11.489Z,1002.41
2017-06-14T21:02:35.975Z,1002.43
2017-06-14T21:05:00.449Z,1002.42
2017-06-14T21:07:24.863Z,1002.38
2017-06-14T21:09:49.341Z,1002.45
2017-06-14T21:12:13.843Z,1002.54
2017-06-14T21:14:38.336Z,1002.59
2017-06-14T21:17:02.821Z,1002.52
2017-06-14T21:19:27.306Z,1002.48
2017-06-14T21:21:43.230Z,1002.42
2017-06-14T21:24:07.667Z,1002.41
2017-06-14T21:26:23.665Z,1002.43
2017-06-14T21:28:48.060Z,1002.51
2017-06-14T21:31:12.440Z,1002.53
2017-06-14T21:33:36.830Z,1002.57
2017-06-14T21:36:01.221Z,1002.56
2017-06-14T21:38:25.632Z,1002.53
2017-06-14T21:40:50.011Z,1002.49
2017-06-14T21:43:06.037Z,1002.48
2017-06-14T21:45:30.486Z,1002.51
2017-06-14T21:47:54.878Z,1002.49
2017-06-14T21:50:19.273Z,1002.49
2017-06-14T21:52:43.652Z,1002.49
2017-06-14T21:55:08.059Z,1002.47
2017-06-14T21:57:32.441Z,1002.49
2017-06-14T21:59:56.822Z,1002.46
2017-06-14T22:02:21.224Z,1002.47
2017-06-14T22:04:45.615Z,1002.44
2017-06-14T22:07:10.017Z,1002.42
2017-06-14T22:09:34.367Z,1002.43
2017-06-14T22:11:50.315Z,1002.44
2017-06-14T22:14:14.655Z,1002.42
2017-06-14T22:16:16.623Z,1002.44
2017-06-14T22:18:41.007Z,1002.46
2017-06-14T22:20:56.880Z,1002.48
2017-06-14T22:23:21.191Z,1002.44
2017-06-14T22:25:45.583Z,1002.48
2017-06-14T22:28:01.503Z,1002.55
2017-06-14T22:30:25.848Z,1002.55
2017-06-14T22:32:50.125Z,1002.51
2017-06-14T22:35:05.974Z,1002.53
2017-06-14T22:37:21.823Z,1002.5
2017-06-14T22:39:46.195Z,1002.54
2017-06-14T22:42:10.481Z,1002.59
2017-06-14T22:44:34.773Z,1002.56
2017-06-14T22:46:50.591Z,1002.53
2017-06-14T22:48:52.014Z,1002.54
2017-06-14T22:51:16.292Z,1002.54
2017-06-14T22:53:23.737Z,1002.54
2017-06-14T22:55:48.061Z,1002.61
2017-06-14T22:58:03.958Z,1002.56
2017-06-14T23:00:28.249Z,1002.56
2017-06-14T23:02:52.536Z,1002.55
2017-06-14T23:05:16.815Z,1002.52
2017-06-14T23:07:41.105Z,1002.55
2017-06-14T23:10:05.395Z,1002.55
2017-06-14T23:12:29.685Z,1002.57
2017-06-14T23:14:54.074Z,1002.58
2017-06-14T23:17:18.374Z,1002.61
2017-06-14T23:19:11.347Z,1002.62
2017-06-14T23:21:35.704Z,1002.58
2017-06-14T23:24:00.082Z,1002.57
2017-06-14T23:26:24.374Z,1002.57
2017-06-14T23:28:40.258Z,1002.55
2017-06-14T23:31:04.542Z,1002.59
2017-06-14T23:33:20.441Z,1002.6
2017-06-14T23:35:44.855Z,1002.61
2017-06-14T23:37:52.326Z,1002.61
2017-06-14T23:40:08.162Z,1002.6
2017-06-14T23:42:24.052Z,1002.63
2017-06-14T23:44:48.392Z,1002.66
2017-06-14T23:47:12.662Z,1002.66
2017-06-14T23:49:28.556Z,1002.63
2017-06-14T23:51:52.844Z,1002.59
2017-06-14T23:54:17.133Z,1002.63
2017-06-14T23:56:41.418Z,1002.68
2017-06-14T23:59:05.708Z,1002.71
